Norwich, Canada
Current Conditions -  °F | °C
As of 6:00 AM on Sunday 21 Dec 2014 (Local Time) from CYXU Reporting Station
Haze Haze  
Wind Chill: 27°   Ceiling: 2600
Heat Index: 27°   Visibility: 6mi
Dew Point: 21°   Wind: 3mph
Humidity: 80%   Direction: 260°W
Pressure: 30.29"   Gusts: NA
Location:  42.98°N, 80.6°W
Report Text: CYXU 211100Z 26003KT 220V280 6SM BR OVC026 M03/M06 A3029 RMK SC8 SLP270
Loading
Personal Weather Stations






























Interactive Weather Map New forecast layout! Learn more

10-Day Weather Forecast

Advertisements
Track Severe Weather on mobile